createdAt,value
2022-11-27T00:02:01.218Z,12.80
2022-11-27T00:04:31.792Z,12.80
2022-11-27T00:07:03.164Z,12.90
2022-11-27T00:09:35.465Z,12.80
2022-11-27T00:12:06.216Z,12.80
2022-11-27T00:14:36.043Z,12.90
2022-11-27T00:17:06.543Z,13.00
2022-11-27T00:19:37.835Z,13.00
2022-11-27T00:22:08.525Z,13.00
2022-11-27T00:24:39.334Z,12.90
2022-11-27T00:27:09.840Z,12.90
2022-11-27T00:29:42.273Z,12.90
2022-11-27T00:32:12.592Z,12.90
2022-11-27T00:34:43.076Z,12.80
2022-11-27T00:37:14.266Z,12.80
2022-11-27T00:39:44.784Z,12.70
2022-11-27T00:42:15.214Z,12.70
2022-11-27T00:44:45.641Z,12.70
2022-11-27T00:47:15.962Z,12.70
2022-11-27T00:49:46.492Z,12.60
2022-11-27T00:52:16.961Z,12.60
2022-11-27T00:54:47.416Z,12.60
2022-11-27T00:57:17.807Z,12.70
2022-11-27T00:59:48.202Z,12.60
2022-11-27T01:02:18.710Z,12.60
2022-11-27T01:04:50.008Z,12.60
2022-11-27T01:07:20.851Z,12.60
2022-11-27T01:09:51.201Z,12.60
2022-11-27T01:12:21.726Z,12.60
2022-11-27T01:14:52.117Z,12.60
2022-11-27T01:17:22.576Z,12.70
2022-11-27T01:19:53.025Z,12.70
2022-11-27T01:22:23.355Z,12.70
2022-11-27T01:24:53.955Z,12.70
2022-11-27T01:27:23.784Z,12.80
2022-11-27T01:29:54.241Z,12.80
2022-11-27T01:32:24.748Z,12.90
2022-11-27T01:34:55.226Z,12.90
2022-11-27T01:37:25.732Z,13.00
2022-11-27T01:39:56.092Z,13.00
2022-11-27T01:42:26.542Z,13.10
2022-11-27T01:44:58.482Z,13.20
2022-11-27T01:47:37.468Z,13.20
2022-11-27T01:50:13.235Z,13.30
2022-11-27T01:52:49.759Z,13.40
2022-11-27T01:55:39.397Z,13.50
2022-11-27T01:58:14.919Z,13.60
2022-11-27T02:00:45.395Z,13.70
2022-11-27T02:03:15.924Z,13.80
2022-11-27T02:05:45.309Z,13.90
2022-11-27T02:08:18.011Z,14.10
2022-11-27T02:11:01.499Z,14.20
2022-11-27T02:13:56.078Z,14.40
2022-11-27T02:17:02.562Z,14.60
2022-11-27T02:20:02.854Z,14.70
2022-11-27T02:23:02.675Z,14.80
2022-11-27T02:26:00.995Z,14.90
2022-11-27T02:28:53.037Z,14.90
2022-11-27T02:31:43.466Z,14.90
2022-11-27T02:34:29.781Z,14.90
2022-11-27T02:37:23.563Z,14.80
2022-11-27T02:40:19.150Z,14.80
2022-11-27T02:43:04.347Z,14.90
2022-11-27T02:45:41.816Z,14.90
2022-11-27T02:48:13.438Z,15.00
2022-11-27T02:50:45.335Z,15.00
2022-11-27T02:53:23.067Z,15.10
2022-11-27T02:55:55.372Z,15.20
2022-11-27T02:58:28.692Z,15.30
2022-11-27T03:01:00.044Z,15.40
2022-11-27T03:03:36.523Z,15.40
2022-11-27T03:06:11.984Z,15.50
2022-11-27T03:09:04.953Z,15.60
2022-11-27T03:11:34.990Z,15.70
2022-11-27T03:14:10.681Z,15.70
2022-11-27T03:17:00.256Z,15.80
2022-11-27T03:19:46.190Z,15.90
2022-11-27T03:22:16.565Z,16.10
2022-11-27T03:24:46.738Z,16.10
2022-11-27T03:27:21.552Z,16.20
2022-11-27T03:29:57.605Z,16.30
2022-11-27T03:32:29.584Z,16.40
2022-11-27T03:34:59.800Z,16.50
2022-11-27T03:37:29.981Z,16.50
2022-11-27T03:39:59.959Z,16.60
2022-11-27T03:42:54.721Z,16.70
2022-11-27T03:45:40.516Z,16.70
2022-11-27T03:48:39.535Z,16.90
2022-11-27T03:51:40.768Z,16.90
2022-11-27T03:54:48.198Z,17.00
2022-11-27T03:57:29.756Z,17.10
2022-11-27T04:00:04.354Z,17.20
2022-11-27T04:02:45.115Z,17.40
2022-11-27T04:05:15.477Z,17.50
2022-11-27T04:07:44.985Z,17.50
2022-11-27T04:10:15.170Z,17.60
2022-11-27T04:12:45.620Z,17.70
2022-11-27T04:15:14.927Z,17.80
2022-11-27T04:17:44.842Z,17.90
2022-11-27T04:20:19.966Z,17.90
2022-11-27T04:22:50.070Z,17.90
2022-11-27T04:25:21.024Z,17.90
2022-11-27T04:27:51.377Z,18.00
2022-11-27T04:30:23.719Z,18.00
2022-11-27T04:32:53.753Z,18.10
2022-11-27T04:35:23.559Z,18.10
2022-11-27T04:37:53.427Z,18.10
2022-11-27T04:40:23.565Z,18.20
2022-11-27T04:42:53.710Z,18.30
2022-11-27T04:45:23.673Z,18.50
2022-11-27T04:47:53.648Z,18.50
2022-11-27T04:50:23.565Z,18.50
2022-11-27T04:52:53.375Z,18.50
2022-11-27T04:55:23.200Z,18.50
2022-11-27T04:57:52.982Z,18.60
2022-11-27T05:00:23.821Z,18.80
2022-11-27T05:02:53.770Z,19.00
2022-11-27T05:05:23.865Z,19.10
2022-11-27T05:07:54.644Z,19.10
2022-11-27T05:10:24.875Z,19.10
2022-11-27T05:12:54.814Z,19.20
2022-11-27T05:15:24.630Z,19.30
2022-11-27T05:17:54.708Z,19.40
2022-11-27T05:20:24.591Z,19.50
2022-11-27T05:22:54.502Z,19.50
2022-11-27T05:25:24.428Z,19.60
2022-11-27T05:27:55.234Z,19.60
2022-11-27T05:30:25.177Z,19.80
2022-11-27T05:32:55.261Z,19.80
2022-11-27T05:35:25.184Z,19.60
2022-11-27T05:37:55.127Z,19.70
2022-11-27T05:40:25.012Z,19.60
2022-11-27T05:42:55.430Z,19.80
2022-11-27T05:45:25.261Z,19.90
2022-11-27T05:47:55.178Z,20.10
2022-11-27T05:50:25.207Z,20.10
2022-11-27T05:52:54.982Z,20.30
2022-11-27T05:55:24.814Z,20.40
2022-11-27T05:57:54.957Z,20.40
2022-11-27T06:00:25.118Z,20.50
2022-11-27T06:02:54.676Z,20.60
2022-11-27T06:05:24.728Z,20.70
2022-11-27T06:07:54.611Z,20.70
2022-11-27T06:10:25.060Z,20.70
2022-11-27T06:12:55.035Z,20.70
2022-11-27T06:15:25.009Z,20.70
2022-11-27T06:17:54.929Z,20.70
2022-11-27T06:20:25.673Z,20.80
2022-11-27T06:22:55.542Z,20.80
2022-11-27T06:25:26.299Z,20.80
2022-11-27T06:27:56.314Z,21.00
2022-11-27T06:30:26.230Z,21.10
2022-11-27T06:32:56.228Z,21.10
2022-11-27T06:35:26.756Z,21.10
2022-11-27T06:37:56.650Z,21.00
2022-11-27T06:40:26.907Z,21.00
2022-11-27T06:42:56.915Z,21.10
2022-11-27T06:45:26.791Z,21.20
2022-11-27T06:47:56.745Z,21.20
2022-11-27T06:50:26.609Z,21.20
2022-11-27T06:52:56.635Z,21.20
2022-11-27T06:55:26.565Z,21.10
2022-11-27T06:57:56.507Z,21.20
2022-11-27T07:00:26.525Z,21.30
2022-11-27T07:02:57.654Z,21.40
2022-11-27T07:05:27.825Z,21.40
2022-11-27T07:07:57.209Z,21.50
2022-11-27T07:10:27.118Z,21.50
2022-11-27T07:12:57.224Z,21.50
2022-11-27T07:15:26.412Z,21.70
2022-11-27T07:17:57.039Z,21.60
2022-11-27T07:20:26.994Z,21.60
2022-11-27T07:22:58.452Z,21.50
2022-11-27T07:25:28.903Z,21.60
2022-11-27T07:27:58.889Z,21.70
2022-11-27T07:30:28.788Z,21.80
2022-11-27T07:32:58.810Z,21.80
2022-11-27T07:35:28.700Z,21.80
2022-11-27T07:37:58.653Z,21.80
2022-11-27T07:40:28.749Z,21.70
2022-11-27T07:43:00.499Z,21.70
2022-11-27T07:45:33.235Z,21.70
2022-11-27T07:48:03.107Z,21.70
2022-11-27T07:50:33.037Z,21.70
2022-11-27T07:53:02.990Z,21.70
2022-11-27T07:55:32.841Z,21.70
2022-11-27T07:58:02.691Z,21.70
2022-11-27T08:00:32.678Z,21.60
2022-11-27T08:03:04.415Z,21.60
2022-11-27T08:05:37.556Z,21.60
2022-11-27T08:08:07.967Z,21.70
2022-11-27T08:10:39.523Z,21.70
2022-11-27T08:13:09.847Z,21.70
2022-11-27T08:15:40.307Z,21.80
2022-11-27T08:18:10.153Z,21.80
2022-11-27T08:20:40.245Z,21.80
2022-11-27T08:23:10.205Z,21.80
2022-11-27T08:25:40.969Z,21.80
2022-11-27T08:28:11.503Z,21.80
2022-11-27T08:30:41.434Z,21.80
2022-11-27T08:33:12.089Z,21.70
2022-11-27T08:35:41.940Z,21.80
2022-11-27T08:38:11.546Z,21.80
2022-11-27T08:40:41.331Z,21.80
2022-11-27T08:43:11.401Z,21.80
2022-11-27T08:45:42.115Z,21.70
2022-11-27T08:48:11.950Z,21.70
2022-11-27T08:50:41.867Z,21.70
2022-11-27T08:53:11.770Z,21.70
2022-11-27T08:55:41.676Z,21.60
2022-11-27T08:58:12.044Z,21.70
2022-11-27T09:00:42.752Z,21.60
2022-11-27T09:03:14.361Z,21.60
2022-11-27T09:05:46.556Z,21.60
2022-11-27T09:08:21.852Z,21.50
2022-11-27T09:10:51.972Z,21.40
2022-11-27T09:13:21.116Z,21.40
2022-11-27T09:15:51.926Z,21.40
2022-11-27T09:18:21.799Z,21.40
2022-11-27T09:21:08.828Z,21.40
2022-11-27T09:23:39.448Z,21.40
2022-11-27T09:26:13.272Z,21.30
2022-11-27T09:28:44.736Z,21.40
2022-11-27T09:31:16.573Z,21.30
2022-11-27T09:33:47.406Z,21.30
2022-11-27T09:36:21.637Z,21.30
2022-11-27T09:38:51.972Z,21.30
2022-11-27T09:41:47.364Z,21.20
2022-11-27T09:44:32.837Z,21.20
2022-11-27T09:47:19.625Z,21.20
2022-11-27T09:49:57.297Z,21.20
2022-11-27T09:52:41.483Z,21.10
2022-11-27T09:55:20.160Z,21.00
2022-11-27T09:58:09.985Z,21.00
2022-11-27T10:00:39.935Z,21.00
2022-11-27T10:03:16.815Z,20.90
2022-11-27T10:06:02.608Z,20.90
2022-11-27T10:09:10.591Z,20.80
2022-11-27T10:12:10.904Z,20.70
2022-11-27T10:14:59.753Z,20.50
2022-11-27T10:17:44.342Z,20.40
2022-11-27T10:20:31.733Z,20.30
2022-11-27T10:23:32.404Z,20.20
2022-11-27T10:26:07.860Z,20.20
2022-11-27T10:28:53.276Z,20.10
2022-11-27T10:31:43.863Z,20.00
2022-11-27T10:34:52.542Z,20.00
2022-11-27T10:37:44.054Z,19.90
2022-11-27T10:40:27.328Z,19.90
2022-11-27T10:43:23.068Z,19.80
2022-11-27T10:46:24.678Z,19.80
2022-11-27T10:48:55.538Z,19.70
2022-11-27T10:51:31.452Z,19.70
2022-11-27T10:54:05.255Z,19.60
2022-11-27T10:57:03.072Z,19.50
2022-11-27T10:59:40.006Z,19.50
2022-11-27T11:02:30.241Z,19.50
2022-11-27T11:05:30.871Z,19.40
2022-11-27T11:08:01.202Z,19.30
2022-11-27T11:10:37.041Z,19.30
2022-11-27T11:13:21.446Z,19.20
2022-11-27T11:15:59.088Z,19.20
2022-11-27T11:18:33.286Z,19.10
2022-11-27T11:21:09.822Z,19.00
2022-11-27T11:23:42.802Z,19.00
2022-11-27T11:26:28.763Z,18.90
2022-11-27T11:29:02.140Z,18.90
2022-11-27T11:31:41.887Z,18.90
2022-11-27T11:34:28.809Z,18.80
2022-11-27T11:37:08.822Z,18.70
2022-11-27T11:39:47.231Z,18.70
2022-11-27T11:42:25.120Z,18.60
2022-11-27T11:45:03.778Z,18.60
2022-11-27T11:47:34.702Z,18.50
2022-11-27T11:50:04.808Z,18.50
2022-11-27T11:52:52.240Z,18.50
2022-11-27T11:55:29.794Z,18.40
2022-11-27T11:58:27.050Z,18.40
2022-11-27T12:01:31.138Z,18.40
2022-11-27T12:04:23.498Z,18.40
2022-11-27T12:07:13.077Z,18.30
2022-11-27T12:09:59.529Z,18.20
2022-11-27T12:12:48.293Z,18.20
2022-11-27T12:15:42.033Z,18.20
2022-11-27T12:18:39.536Z,18.10
2022-11-27T12:21:23.491Z,18.20
2022-11-27T12:24:19.197Z,18.00
2022-11-27T12:27:27.836Z,18.00
2022-11-27T12:30:15.862Z,18.10
2022-11-27T12:33:14.874Z,18.00
2022-11-27T12:36:09.266Z,17.90
2022-11-27T12:38:59.676Z,17.90
2022-11-27T12:41:38.129Z,17.90
2022-11-27T12:44:29.914Z,17.90
2022-11-27T12:47:19.820Z,17.90
2022-11-27T12:49:59.002Z,18.00
2022-11-27T12:52:36.649Z,17.90
2022-11-27T12:55:24.370Z,17.90
2022-11-27T12:58:01.472Z,17.90
2022-11-27T13:00:33.248Z,17.90
2022-11-27T13:03:30.347Z,17.80
2022-11-27T13:06:11.271Z,17.80
2022-11-27T13:09:00.632Z,17.80
2022-11-27T13:11:39.920Z,17.80
2022-11-27T13:14:20.921Z,17.70
2022-11-27T13:17:11.992Z,17.80
2022-11-27T13:19:49.281Z,17.80
2022-11-27T13:22:29.095Z,17.80
2022-11-27T13:25:02.734Z,17.80
2022-11-27T13:27:37.863Z,17.70
2022-11-27T13:30:11.920Z,17.70
2022-11-27T13:32:49.768Z,17.70
2022-11-27T13:35:38.890Z,17.70
2022-11-27T13:38:27.904Z,17.70
2022-11-27T13:41:00.081Z,17.70
2022-11-27T13:43:45.876Z,17.70
2022-11-27T13:46:33.205Z,17.70
2022-11-27T13:49:07.774Z,17.70
2022-11-27T13:51:41.626Z,17.60
2022-11-27T13:54:15.089Z,17.60
2022-11-27T13:56:45.731Z,17.60
2022-11-27T13:59:21.933Z,17.50
2022-11-27T14:02:07.137Z,17.50
2022-11-27T14:04:38.468Z,17.40
2022-11-27T14:07:15.842Z,17.40
2022-11-27T14:09:57.866Z,17.30
2022-11-27T14:12:32.719Z,17.30
2022-11-27T14:15:09.652Z,17.20
2022-11-27T14:18:06.520Z,17.20
2022-11-27T14:20:40.201Z,17.20
2022-11-27T14:23:13.691Z,17.20
2022-11-27T14:25:44.069Z,17.10
2022-11-27T14:28:23.981Z,17.10
2022-11-27T14:30:58.487Z,17.10
2022-11-27T14:33:33.202Z,17.10
2022-11-27T14:36:09.798Z,17.00
2022-11-27T14:38:40.163Z,17.00
2022-11-27T14:41:17.603Z,17.00
2022-11-27T14:43:47.482Z,17.00
2022-11-27T14:46:22.206Z,17.00
2022-11-27T14:48:58.763Z,17.00
2022-11-27T14:51:31.793Z,17.00
2022-11-27T14:57:00.700Z,16.90
2022-11-27T14:59:30.717Z,16.90
2022-11-27T15:02:26.036Z,16.90
2022-11-27T15:05:07.181Z,16.90
2022-11-27T15:07:46.598Z,16.80
2022-11-27T15:10:30.200Z,16.80
2022-11-27T15:13:02.290Z,16.80
2022-11-27T15:15:37.320Z,16.80
2022-11-27T15:18:12.186Z,16.70
2022-11-27T15:20:46.010Z,16.70
2022-11-27T15:23:40.122Z,16.70
2022-11-27T15:26:16.942Z,16.70
2022-11-27T15:28:59.058Z,16.70
2022-11-27T15:31:35.431Z,16.60
2022-11-27T15:34:28.654Z,16.60
2022-11-27T15:37:07.945Z,16.60
2022-11-27T15:39:53.468Z,16.60
2022-11-27T15:42:24.293Z,16.60
2022-11-27T15:44:59.775Z,16.50
2022-11-27T15:47:41.860Z,16.50
2022-11-27T15:50:18.457Z,16.40
2022-11-27T15:52:48.428Z,16.40
2022-11-27T15:55:18.458Z,16.50
2022-11-27T15:57:49.157Z,16.40
2022-11-27T16:00:19.646Z,16.40
2022-11-27T16:02:48.918Z,16.40
2022-11-27T16:05:20.197Z,16.40
2022-11-27T16:07:54.701Z,16.30
2022-11-27T16:10:25.269Z,16.20
2022-11-27T16:12:56.699Z,16.20
2022-11-27T16:15:32.917Z,16.20
2022-11-27T16:18:03.310Z,16.20
2022-11-27T16:20:34.542Z,16.20
2022-11-27T16:23:07.125Z,16.20
2022-11-27T16:25:40.069Z,16.10
2022-11-27T16:28:09.945Z,16.10
2022-11-27T16:30:43.590Z,16.00
2022-11-27T16:33:13.577Z,15.90
2022-11-27T16:35:46.563Z,15.90
2022-11-27T16:38:16.498Z,15.90
2022-11-27T16:40:46.583Z,15.90
2022-11-27T16:43:17.213Z,15.90
2022-11-27T16:45:47.255Z,15.80
2022-11-27T16:48:17.131Z,15.80
2022-11-27T16:50:47.105Z,15.80
2022-11-27T16:53:17.091Z,15.70
2022-11-27T16:55:47.628Z,15.70
2022-11-27T16:58:17.019Z,15.70
2022-11-27T17:00:46.956Z,15.70
2022-11-27T17:03:35.714Z,15.70
2022-11-27T17:06:12.098Z,15.70
2022-11-27T17:08:42.695Z,15.60
2022-11-27T17:11:26.410Z,15.60
2022-11-27T17:14:00.440Z,15.50
2022-11-27T17:16:30.908Z,15.50
2022-11-27T17:19:00.258Z,15.50
2022-11-27T17:21:33.030Z,15.50
2022-11-27T17:24:06.139Z,15.50
2022-11-27T17:26:44.608Z,15.40
2022-11-27T17:29:16.421Z,15.40
2022-11-27T17:31:46.709Z,15.30
2022-11-27T17:34:18.206Z,15.40
2022-11-27T17:36:52.172Z,15.30
2022-11-27T17:39:22.148Z,15.30
2022-11-27T17:41:52.879Z,15.20
2022-11-27T17:44:22.814Z,15.20
2022-11-27T17:46:52.743Z,15.20
2022-11-27T17:49:23.695Z,15.20
2022-11-27T17:51:53.652Z,15.20
2022-11-27T17:54:23.572Z,15.10
2022-11-27T17:56:53.607Z,15.20
2022-11-27T17:59:23.845Z,15.10
2022-11-27T18:01:54.969Z,15.10
2022-11-27T18:04:25.901Z,15.10
2022-11-27T18:06:56.304Z,15.10
2022-11-27T18:09:26.392Z,15.00
2022-11-27T18:11:57.466Z,15.00
2022-11-27T18:14:27.253Z,15.00
2022-11-27T18:16:57.165Z,15.00
2022-11-27T18:19:28.026Z,15.00
2022-11-27T18:21:57.913Z,15.00
2022-11-27T18:24:28.062Z,14.90
2022-11-27T18:27:08.085Z,14.90
2022-11-27T18:29:39.183Z,14.90
2022-11-27T18:32:09.116Z,15.00
2022-11-27T18:34:39.943Z,15.00
2022-11-27T18:37:10.738Z,15.00
2022-11-27T18:39:42.187Z,15.00
2022-11-27T18:42:12.291Z,15.00
2022-11-27T18:44:44.713Z,14.80
2022-11-27T18:47:17.153Z,14.80
2022-11-27T18:49:47.274Z,14.80
2022-11-27T18:52:17.241Z,14.70
2022-11-27T18:54:47.285Z,14.70
2022-11-27T18:57:17.212Z,14.70
2022-11-27T18:59:47.398Z,14.70
2022-11-27T19:02:17.348Z,14.70
2022-11-27T19:04:47.308Z,14.70
2022-11-27T19:07:17.180Z,14.80
2022-11-27T19:09:47.120Z,14.70
2022-11-27T19:12:17.111Z,14.70
2022-11-27T19:14:47.089Z,14.70
2022-11-27T19:17:16.958Z,14.60
2022-11-27T19:20:04.437Z,14.50
2022-11-27T19:22:34.356Z,14.50
2022-11-27T19:25:04.424Z,14.50
2022-11-27T19:27:34.387Z,14.50
2022-11-27T19:30:04.285Z,14.50
2022-11-27T19:32:34.119Z,14.40
2022-11-27T19:35:07.172Z,14.40
2022-11-27T19:37:38.779Z,14.40
2022-11-27T19:40:10.051Z,14.40
2022-11-27T19:42:39.993Z,14.40
2022-11-27T19:45:10.285Z,14.30
2022-11-27T19:47:40.130Z,14.30
2022-11-27T19:50:10.595Z,14.30
2022-11-27T19:52:41.213Z,14.30
2022-11-27T19:55:10.855Z,14.30
2022-11-27T19:57:41.143Z,14.30
2022-11-27T20:00:11.618Z,14.30
2022-11-27T20:02:41.994Z,14.40
2022-11-27T20:05:12.098Z,14.40
2022-11-27T20:07:42.118Z,14.40
2022-11-27T20:10:12.348Z,14.40
2022-11-27T20:12:43.184Z,14.30
2022-11-27T20:15:16.042Z,14.30
2022-11-27T20:17:46.626Z,14.30
2022-11-27T20:20:18.066Z,14.20
2022-11-27T20:22:48.023Z,14.20
2022-11-27T20:25:20.273Z,14.20
2022-11-27T20:27:50.591Z,14.20
2022-11-27T20:30:20.444Z,14.20
2022-11-27T20:32:50.318Z,14.10
2022-11-27T20:35:20.262Z,14.10
2022-11-27T20:37:50.022Z,14.10
2022-11-27T20:40:22.055Z,14.00
2022-11-27T20:42:52.150Z,14.00
2022-11-27T20:45:21.999Z,13.90
2022-11-27T20:47:52.010Z,13.90
2022-11-27T20:50:22.092Z,13.90
2022-11-27T20:52:51.906Z,13.80
2022-11-27T20:55:21.981Z,13.80
2022-11-27T20:57:54.845Z,13.80
2022-11-27T21:00:26.189Z,13.70
2022-11-27T21:02:56.607Z,13.80
2022-11-27T21:05:26.972Z,13.70
2022-11-27T21:07:59.711Z,13.70
2022-11-27T21:10:30.463Z,13.70
2022-11-27T21:13:00.985Z,13.70
2022-11-27T21:15:31.390Z,13.70
2022-11-27T21:18:01.822Z,13.60
2022-11-27T21:20:33.403Z,13.70
2022-11-27T21:23:03.769Z,13.70
2022-11-27T21:25:34.280Z,13.60
2022-11-27T21:28:04.611Z,13.70
2022-11-27T21:30:35.093Z,13.60
2022-11-27T21:33:05.516Z,13.60
2022-11-27T21:35:40.105Z,13.60
2022-11-27T21:38:10.670Z,13.50
2022-11-27T21:40:41.129Z,13.60
2022-11-27T21:43:11.526Z,13.50
2022-11-27T21:45:42.000Z,13.50
2022-11-27T21:48:14.904Z,13.50
2022-11-27T21:50:45.493Z,13.50
2022-11-27T21:53:15.948Z,13.50
2022-11-27T21:55:46.560Z,13.50
2022-11-27T21:58:16.410Z,13.50
2022-11-27T22:00:46.828Z,13.50
2022-11-27T22:03:17.372Z,13.50
2022-11-27T22:05:47.809Z,13.50
2022-11-27T22:08:18.255Z,13.50
2022-11-27T22:10:48.688Z,13.40
2022-11-27T22:13:19.110Z,13.40
2022-11-27T22:15:49.576Z,13.40
2022-11-27T22:18:21.323Z,13.40
2022-11-27T22:20:52.142Z,13.40
2022-11-27T22:23:22.542Z,13.50
2022-11-27T22:25:52.901Z,13.50
2022-11-27T22:28:23.387Z,13.50
2022-11-27T22:30:53.986Z,13.50
2022-11-27T22:33:23.823Z,13.50
2022-11-27T22:35:54.447Z,13.50
2022-11-27T22:38:24.116Z,13.50
2022-11-27T22:41:00.206Z,13.50
2022-11-27T22:43:30.583Z,13.40
2022-11-27T22:46:01.088Z,13.30
2022-11-27T22:48:31.396Z,13.30
2022-11-27T22:51:02.322Z,13.40
2022-11-27T22:53:33.169Z,13.30
2022-11-27T22:56:15.224Z,13.30
2022-11-27T22:58:45.752Z,13.30
2022-11-27T23:01:27.427Z,13.20
2022-11-27T23:03:57.936Z,13.20
2022-11-27T23:06:28.498Z,13.20
2022-11-27T23:08:59.187Z,13.10
2022-11-27T23:11:30.861Z,13.10
2022-11-27T23:14:01.920Z,13.00
2022-11-27T23:16:32.556Z,13.00
2022-11-27T23:19:02.400Z,13.00
2022-11-27T23:21:34.844Z,13.00
2022-11-27T23:24:06.140Z,13.00
2022-11-27T23:26:38.174Z,13.00
2022-11-27T23:29:08.906Z,12.90
2022-11-27T23:31:38.939Z,13.00
2022-11-27T23:34:16.795Z,13.10
2022-11-27T23:36:50.846Z,13.00
2022-11-27T23:39:21.258Z,13.00
2022-11-27T23:41:52.619Z,13.00
2022-11-27T23:44:23.802Z,12.90
2022-11-27T23:46:53.604Z,12.90
2022-11-27T23:49:24.018Z,12.90
2022-11-27T23:51:54.810Z,12.90
2022-11-27T23:54:25.126Z,12.90
2022-11-27T23:56:55.970Z,12.90
2022-11-27T23:59:26.522Z,12.90
